Time;durP1;ratioP1;P1;durP2;ratioP2;P2;SDS_P1;SDS_P2;PMS_P1;PMS_P2;Temp;Humidity;BMP_temperature;BMP_pressure;BME280_temperature;BME280_humidity;BME280_pressure;Samples;Min_cycle;Max_cycle;Signal;HPM_P1;HPM_P2
2021/09/27 00:02:19;;;;;;;24.92;16.45;;;21.60;87.40;;;;;;5094380;28;20115;-78
2021/09/27 00:04:44;;;;;;;24.58;16.88;;;21.70;87.50;;;;;;5082328;28;20104;-79
2021/09/27 00:07:10;;;;;;;27.88;16.50;;;21.60;87.60;;;;;;5087896;28;20061;-78
2021/09/27 00:09:36;;;;;;;22.88;15.68;;;21.60;87.60;;;;;;5082913;28;20032;-79
2021/09/27 00:12:05;;;;;;;22.40;15.93;;;21.60;87.60;;;;;;5090632;28;20027;-79
2021/09/27 00:14:31;;;;;;;22.58;17.02;;;21.60;87.60;;;;;;5094356;28;20035;-79
2021/09/27 00:16:57;;;;;;;23.65;17.83;;;21.60;87.60;;;;;;5085969;28;20035;-79
2021/09/27 00:19:24;;;;;;;28.85;16.98;;;21.50;87.60;;;;;;5081451;28;20735;-78
2021/09/27 00:21:52;;;;;;;25.80;18.10;;;21.50;87.60;;;;;;5094356;28;20052;-79
2021/09/27 00:24:19;;;;;;;22.05;16.90;;;21.50;87.60;;;;;;5082211;28;20032;-79
2021/09/27 00:26:45;;;;;;;27.75;16.80;;;21.50;87.60;;;;;;5093589;28;20039;-79
2021/09/27 00:29:11;;;;;;;22.40;15.80;;;21.50;87.60;;;;;;5082230;28;20461;-79
2021/09/27 00:31:37;;;;;;;23.42;15.45;;;21.50;87.60;;;;;;5084980;28;20028;-78
2021/09/27 00:34:02;;;;;;;27.15;15.77;;;21.40;87.60;;;;;;5080818;28;20380;-79
2021/09/27 00:36:28;;;;;;;24.23;16.13;;;21.40;87.70;;;;;;5091640;28;20055;-79
2021/09/27 00:38:54;;;;;;;23.95;16.27;;;21.40;87.60;;;;;;5088699;28;20086;-78
2021/09/27 00:41:21;;;;;;;27.45;16.83;;;21.40;87.60;;;;;;5089832;28;20111;-78
2021/09/27 00:43:47;;;;;;;21.90;15.73;;;21.30;87.50;;;;;;5083948;28;20079;-78
2021/09/27 00:46:21;;;;;;;28.52;15.52;;;21.30;87.40;;;;;;5088794;28;20035;-78
2021/09/27 00:48:47;;;;;;;26.27;16.35;;;21.30;87.30;;;;;;5089154;28;20043;-79
2021/09/27 00:51:17;;;;;;;25.55;15.80;;;21.30;87.30;;;;;;5086592;28;20035;-79
2021/09/27 00:53:54;;;;;;;25.48;16.20;;;21.30;87.30;;;;;;5090844;28;20046;-78
2021/09/27 00:56:32;;;;;;;32.10;16.40;;;21.20;87.90;;;;;;5091557;28;20184;-78
2021/09/27 00:58:59;;;;;;;22.38;15.43;;;21.20;87.20;;;;;;5079260;28;20040;-79
2021/09/27 01:01:25;;;;;;;23.42;16.30;;;21.20;87.30;;;;;;5087702;28;20024;-79
2021/09/27 01:03:52;;;;;;;26.40;16.17;;;21.20;87.40;;;;;;5078332;28;20032;-79
2021/09/27 01:06:49;;;;;;;23.38;15.20;;;21.10;87.50;;;;;;5084125;28;20530;-78
2021/09/27 01:09:42;;;;;;;21.13;14.77;;;21.20;87.60;;;;;;5089362;28;20024;-79
2021/09/27 01:12:25;;;;;;;20.67;14.48;;;21.10;87.50;;;;;;5086033;28;20038;-79
2021/09/27 01:14:57;;;;;;;19.80;15.32;;;21.10;87.60;;;;;;5087068;28;20044;-79
2021/09/27 01:18:03;;;;;;;23.50;15.65;;;21.10;87.70;;;;;;5079724;28;20036;-79
2021/09/27 01:20:51;;;;;;;27.23;16.65;;;21.10;87.80;;;;;;5087214;28;20024;-79
2021/09/27 01:23:29;;;;;;;24.45;15.38;;;21.00;87.70;;;;;;5091498;28;20463;-79
2021/09/27 01:26:24;;;;;;;23.85;16.33;;;21.00;87.80;;;;;;5081700;28;20036;-79
2021/09/27 01:28:57;;;;;;;27.55;16.08;;;20.90;87.80;;;;;;5087570;28;20032;-79
2021/09/27 01:31:48;;;;;;;22.40;16.13;;;20.90;87.90;;;;;;5081530;28;20039;-79
2021/09/27 01:34:22;;;;;;;20.25;14.77;;;20.90;87.90;;;;;;5088467;28;20024;-79
2021/09/27 01:36:57;;;;;;;27.73;16.00;;;20.90;87.90;;;;;;5087094;28;20055;-77
2021/09/27 01:39:39;;;;;;;23.88;15.60;;;20.90;88.00;;;;;;5084248;28;20391;-78
2021/09/27 01:42:13;;;;;;;24.35;14.95;;;20.80;88.00;;;;;;5087531;28;20392;-79
2021/09/27 01:44:54;;;;;;;22.40;15.15;;;20.80;87.90;;;;;;5082450;28;20028;-78
2021/09/27 01:48:07;;;;;;;27.70;16.17;;;20.80;87.90;;;;;;5085989;28;20512;-79
2021/09/27 01:51:10;;;;;;;24.88;13.98;;;20.80;87.90;;;;;;5073592;28;20480;-79
2021/09/27 01:53:45;;;;;;;18.77;14.03;;;20.80;87.90;;;;;;5084271;28;20081;-79
2021/09/27 01:56:31;;;;;;;23.55;14.48;;;20.80;87.90;;;;;;5092244;28;20054;-79
2021/09/27 01:59:29;;;;;;;22.08;14.38;;;20.70;87.90;;;;;;5081497;28;20020;-79
2021/09/27 02:02:12;;;;;;;19.90;13.52;;;20.70;87.90;;;;;;5081150;28;20032;-79
2021/09/27 02:04:53;;;;;;;23.52;16.30;;;20.70;87.90;;;;;;5090888;28;20081;-79
2021/09/27 02:07:20;;;;;;;20.50;14.63;;;20.60;88.00;;;;;;5085825;28;20040;-79
2021/09/27 02:10:11;;;;;;;22.90;15.27;;;20.70;88.20;;;;;;5082635;28;20099;-80
2021/09/27 02:12:46;;;;;;;26.27;14.80;;;20.60;88.20;;;;;;5074133;28;20036;-79
2021/09/27 02:15:23;;;;;;;25.42;14.73;;;20.60;88.20;;;;;;5087042;28;20044;-79
2021/09/27 02:18:01;;;;;;;24.80;14.88;;;20.60;88.20;;;;;;5080868;28;20108;-78
2021/09/27 02:20:33;;;;;;;20.33;14.13;;;20.60;88.20;;;;;;5092054;28;20036;-79
2021/09/27 02:23:17;;;;;;;19.48;14.02;;;20.60;88.20;;;;;;5090646;28;20028;-79
2021/09/27 02:25:44;;;;;;;25.17;14.20;;;20.60;88.30;;;;;;5077638;28;20076;-79
2021/09/27 02:28:13;;;;;;;19.25;14.38;;;20.50;88.40;;;;;;5078276;28;20107;-80
2021/09/27 02:30:43;;;;;;;25.83;15.23;;;20.50;88.60;;;;;;5085302;28;20031;-83
2021/09/27 02:33:25;;;;;;;28.58;13.95;;;20.50;88.70;;;;;;5079150;28;20048;-81
2021/09/27 02:36:24;;;;;;;22.97;14.50;;;20.50;88.90;;;;;;5073944;28;20503;-82
2021/09/27 02:39:01;;;;;;;19.92;14.05;;;20.60;89.70;;;;;;5047466;28;20627;-83
2021/09/27 02:41:33;;;;;;;19.38;13.57;;;20.50;89.00;;;;;;5056628;28;20033;-79
2021/09/27 02:43:59;;;;;;;22.27;14.35;;;20.50;89.00;;;;;;5059259;28;20033;-79
2021/09/27 02:46:25;;;;;;;22.25;14.90;;;20.50;89.00;;;;;;5062177;28;20028;-79
2021/09/27 02:48:58;;;;;;;21.00;13.98;;;20.50;89.00;;;;;;5063940;28;20036;-80
2021/09/27 02:51:24;;;;;;;;;;;20.50;89.00;;;;;;5061766;28;20043;-79
2021/09/27 02:53:50;;;;;;;26.90;14.30;;;20.50;88.80;;;;;;5070812;28;19909;-80
2021/09/27 02:56:42;;;;;;;24.17;15.05;;;20.40;88.70;;;;;;5070927;28;20036;-79
2021/09/27 02:59:30;;;;;;;22.85;13.52;;;20.40;88.80;;;;;;5052237;28;20028;-79
2021/09/27 03:02:08;;;;;;;22.80;14.63;;;20.40;88.80;;;;;;5065205;28;20499;-79
2021/09/27 03:04:56;;;;;;;22.85;14.15;;;20.40;88.80;;;;;;5068562;28;20063;-79
2021/09/27 03:07:28;;;;;;;21.52;14.57;;;20.30;88.80;;;;;;5053936;28;20041;-79
2021/09/27 03:10:15;;;;;;;28.23;14.27;;;20.30;88.80;;;;;;5066416;28;20036;-79
2021/09/27 03:12:49;;;;;;;28.10;14.35;;;20.30;88.80;;;;;;5061033;28;20028;-79
2021/09/27 03:15:26;;;;;;;;;;;20.30;88.90;;;;;;5071741;28;20048;-80
2021/09/27 03:18:05;;;;;;;19.95;13.57;;;20.20;88.80;;;;;;5060468;28;19991;-79
2021/09/27 03:20:36;;;;;;;22.85;14.55;;;20.20;88.70;;;;;;5069983;28;20024;-79
2021/09/27 03:23:17;;;;;;;29.45;15.45;;;20.20;88.90;;;;;;5057712;28;20112;-80
2021/09/27 03:25:53;;;;;;;30.38;14.43;;;20.10;89.10;;;;;;5065534;28;20074;-79
2021/09/27 03:28:37;;;;;;;23.25;14.65;;;20.10;89.30;;;;;;5062818;28;20891;-78
2021/09/27 03:31:09;;;;;;;25.08;14.05;;;20.00;89.30;;;;;;5066575;28;20395;-79
2021/09/27 03:34:09;;;;;;;21.92;15.15;;;20.00;89.40;;;;;;5054322;28;20029;-79
2021/09/27 03:36:53;;;;;;;21.75;14.68;;;20.00;89.50;;;;;;5065540;28;20059;-79
2021/09/27 03:39:28;;;;;;;24.67;14.13;;;20.00;89.40;;;;;;5070369;28;20028;-79
2021/09/27 03:42:23;;;;;;;23.50;14.63;;;20.00;89.50;;;;;;5053322;28;20094;-79
2021/09/27 03:45:04;;;;;;;22.10;14.80;;;20.00;89.60;;;;;;5052290;28;20043;-79
2021/09/27 03:47:31;;;;;;;23.88;14.60;;;19.90;89.50;;;;;;5053645;28;20021;-79
2021/09/27 03:50:16;;;;;;;22.05;14.63;;;19.90;89.50;;;;;;5062005;28;20024;-79
2021/09/27 03:52:58;;;;;;;22.50;14.05;;;19.90;89.60;;;;;;5070761;28;20533;-79
2021/09/27 03:55:44;;;;;;;23.25;13.20;;;19.90;89.50;;;;;;5065295;28;20159;-79
2021/09/27 03:58:17;;;;;;;23.77;14.77;;;19.90;89.60;;;;;;5061745;28;20033;-79
2021/09/27 04:00:57;;;;;;;21.33;14.52;;;19.90;89.50;;;;;;5058797;28;20032;-79
2021/09/27 04:04:01;;;;;;;24.88;14.05;;;19.80;89.40;;;;;;5065287;28;20120;-79
2021/09/27 04:06:27;;;;;;;;;;;19.80;89.40;;;;;;5059362;28;20055;-79
2021/09/27 04:09:26;;;;;;;19.33;12.27;;;19.80;89.20;;;;;;5074390;28;19908;-79
2021/09/27 04:12:29;;;;;;;23.30;13.43;;;19.80;89.20;;;;;;5059688;28;20111;-79
2021/09/27 04:15:23;;;;;;;20.77;13.05;;;19.70;89.20;;;;;;5068474;28;20037;-80
2021/09/27 04:18:09;;;;;;;27.02;14.30;;;19.70;89.40;;;;;;5057716;28;20044;-79
2021/09/27 04:20:58;;;;;;;20.88;13.63;;;19.70;89.50;;;;;;5072582;28;20064;-80
2021/09/27 04:23:39;;;;;;;21.70;13.43;;;19.70;89.70;;;;;;5061793;28;20048;-79
2021/09/27 04:26:28;;;;;;;20.90;13.02;;;19.60;89.70;;;;;;5056438;28;20115;-79
2021/09/27 04:29:31;;;;;;;18.80;12.00;;;19.60;89.80;;;;;;5071568;28;20037;-79
2021/09/27 04:32:30;;;;;;;17.55;11.52;;;19.60;89.70;;;;;;5059755;28;20045;-79
2021/09/27 04:35:16;;;;;;;22.30;11.95;;;19.60;89.60;;;;;;5070254;28;20052;-80
2021/09/27 04:37:45;;;;;;;24.02;13.43;;;19.60;89.70;;;;;;5078910;28;20552;-81
2021/09/27 04:40:12;;;;;;;21.27;12.77;;;19.60;89.80;;;;;;5083409;28;20084;-79
2021/09/27 04:42:56;;;;;;;20.58;13.45;;;19.60;89.90;;;;;;5080672;28;20044;-81
2021/09/27 04:46:00;;;;;;;20.92;13.32;;;19.60;90.00;;;;;;5094383;28;20027;-77
2021/09/27 04:48:47;;;;;;;22.05;12.85;;;19.50;89.90;;;;;;5056773;28;20162;-72
2021/09/27 04:51:28;;;;;;;18.58;12.73;;;19.50;90.00;;;;;;5078737;28;20073;-79
2021/09/27 04:54:28;;;;;;;23.23;13.00;;;19.50;90.00;;;;;;5075165;28;20062;-84
2021/09/27 04:57:07;;;;;;;19.83;13.55;;;19.50;90.00;;;;;;5037183;28;20075;-83
2021/09/27 04:59:51;;;;;;;22.75;12.75;;;19.50;90.00;;;;;;5076047;28;20426;-83
2021/09/27 05:02:33;;;;;;;22.88;13.27;;;19.50;90.00;;;;;;5087887;28;20585;-82
2021/09/27 05:05:15;;;;;;;23.83;13.80;;;19.50;90.00;;;;;;5083088;28;20032;-82
2021/09/27 05:08:20;;;;;;;19.00;12.98;;;19.50;90.00;;;;;;5081094;28;20040;-84
2021/09/27 05:11:03;;;;;;;20.60;12.75;;;19.40;90.00;;;;;;5087523;28;20039;-80
2021/09/27 05:13:38;;;;;;;;;;;19.40;90.00;;;;;;5076849;28;20040;-81
2021/09/27 05:16:39;;;;;;;19.92;13.70;;;19.40;90.00;;;;;;5088459;28;19916;-86
2021/09/27 05:19:12;;;;;;;17.60;11.82;;;19.40;89.90;;;;;;5075536;28;20028;-82
2021/09/27 05:22:07;;;;;;;18.88;11.25;;;19.40;90.00;;;;;;5076072;28;20063;-82
2021/09/27 05:25:14;;;;;;;22.60;12.80;;;19.30;90.00;;;;;;5077559;28;20399;-83
2021/09/27 05:28:17;;;;;;;20.42;11.82;;;19.30;90.00;;;;;;5076742;28;20031;-86
2021/09/27 05:30:49;;;;;;;19.88;12.60;;;19.30;90.00;;;;;;5077792;28;20031;-82
2021/09/27 05:33:30;;;;;;;24.80;13.17;;;19.30;90.00;;;;;;5074782;28;20139;-86
2021/09/27 05:36:16;;;;;;;19.83;13.15;;;19.30;90.00;;;;;;5080333;28;20125;-84
2021/09/27 05:38:47;;;;;;;22.88;13.88;;;19.30;90.00;;;;;;5077330;28;20048;-87
2021/09/27 05:41:34;;;;;;;20.55;14.48;;;19.20;90.10;;;;;;5081377;28;20047;-81
2021/09/27 05:44:05;;;;;;;23.67;13.35;;;19.20;90.10;;;;;;5074194;28;20024;-85
2021/09/27 05:46:52;;;;;;;24.35;14.38;;;19.20;90.10;;;;;;5086868;28;20032;-82
2021/09/27 05:49:34;;;;;;;21.23;12.57;;;19.20;90.20;;;;;;5074764;28;20032;-82
2021/09/27 05:52:15;;;;;;;20.85;12.05;;;19.20;90.10;;;;;;5092739;28;20028;-81
2021/09/27 05:54:49;;;;;;;30.35;13.48;;;19.20;90.10;;;;;;5080408;28;20783;-82
2021/09/27 05:57:44;;;;;;;19.00;12.35;;;19.20;90.10;;;;;;5088053;28;20032;-82
2021/09/27 06:00:21;;;;;;;23.08;13.05;;;19.20;90.10;;;;;;5074158;28;20031;-87
2021/09/27 06:03:04;;;;;;;22.55;13.60;;;19.20;90.10;;;;;;5073386;28;20044;-78
2021/09/27 06:05:54;;;;;;;23.75;12.52;;;19.20;90.20;;;;;;5086022;28;20048;-84
2021/09/27 06:08:44;;;;;;;20.38;12.73;;;19.20;90.20;;;;;;5072840;28;20021;-84
2021/09/27 06:11:27;;;;;;;19.77;13.43;;;19.20;90.20;;;;;;5087591;28;20418;-81
2021/09/27 06:13:55;;;;;;;25.63;13.73;;;19.10;90.20;;;;;;5081461;28;20028;-81
2021/09/27 06:16:30;;;;;;;17.75;12.13;;;19.10;90.30;;;;;;5072342;28;20036;-84
2021/09/27 06:19:11;;;;;;;17.02;12.27;;;19.20;90.30;;;;;;5073759;28;20480;-85
2021/09/27 06:22:33;;;;;;;25.63;13.15;;;19.10;90.30;;;;;;5080662;28;20030;-89
2021/09/27 06:25:18;;;;;;;18.35;12.10;;;19.10;90.30;;;;;;5029742;28;20059;-84
2021/09/27 06:28:02;;;;;;;22.23;13.73;;;19.10;90.30;;;;;;5074973;28;20045;-85
2021/09/27 06:30:53;;;;;;;23.60;12.93;;;19.10;90.30;;;;;;5084993;28;20024;-85
2021/09/27 06:33:31;;;;;;;25.48;13.70;;;19.10;90.40;;;;;;5073753;28;20017;-81
2021/09/27 06:36:03;;;;;;;20.42;12.60;;;19.10;90.40;;;;;;5074970;28;20052;-87
2021/09/27 06:38:32;;;;;;;22.45;10.77;;;19.10;90.30;;;;;;5073670;28;20045;-85
2021/09/27 06:40:58;;;;;;;18.75;12.80;;;19.10;90.40;;;;;;5090755;28;20509;-89
2021/09/27 06:43:26;;;;;;;21.63;13.35;;;19.10;90.30;;;;;;5086056;28;20024;-85
2021/09/27 06:45:54;;;;;;;19.08;12.57;;;19.10;90.40;;;;;;5084647;28;20036;-86
2021/09/27 06:48:22;;;;;;;25.90;13.38;;;19.10;90.30;;;;;;5092207;28;20048;-80
2021/09/27 06:50:48;;;;;;;18.80;13.13;;;19.10;90.40;;;;;;5081887;28;20038;-78
2021/09/27 06:53:14;;;;;;;20.10;13.10;;;19.10;90.50;;;;;;5078087;28;20070;-85
2021/09/27 06:55:40;;;;;;;21.65;13.32;;;19.20;90.70;;;;;;5084351;28;20551;-78
2021/09/27 06:58:06;;;;;;;19.05;11.57;;;19.20;90.60;;;;;;5084368;28;20086;-84
2021/09/27 07:00:32;;;;;;;18.45;11.80;;;19.20;90.40;;;;;;5079618;28;20063;-81
2021/09/27 07:02:59;;;;;;;20.20;10.13;;;19.20;90.60;;;;;;5092068;28;20036;-83
2021/09/27 07:05:25;;;;;;;21.42;11.57;;;19.20;90.10;;;;;;5083017;28;20052;-81
2021/09/27 07:07:50;;;;;;;19.63;10.13;;;19.20;90.00;;;;;;5084308;28;20109;-79
2021/09/27 07:10:20;;;;;;;20.05;13.43;;;19.20;89.60;;;;;;5089705;28;20027;-80
2021/09/27 07:12:46;;;;;;;23.33;12.43;;;19.10;89.80;;;;;;5091028;28;20031;-79
2021/09/27 07:15:13;;;;;;;23.67;13.88;;;19.20;89.90;;;;;;5077659;28;20052;-85
2021/09/27 07:17:39;;;;;;;24.75;12.25;;;19.20;89.60;;;;;;5082425;28;20434;-87
2021/09/27 07:20:09;;;;;;;29.42;14.77;;;19.10;89.20;;;;;;5077326;28;20044;-85
2021/09/27 07:22:35;;;;;;;26.15;14.40;;;19.20;89.70;;;;;;5089518;28;20037;-86
2021/09/27 07:25:00;;;;;;;25.63;15.57;;;19.10;89.40;;;;;;5074311;28;20029;-87
2021/09/27 07:27:26;;;;;;;31.08;16.10;;;19.10;90.00;;;;;;5076606;28;20738;-86
2021/09/27 07:29:52;;;;;;;32.28;15.43;;;19.20;90.00;;;;;;5085633;28;20052;-86
2021/09/27 07:32:17;;;;;;;28.92;15.82;;;19.20;90.10;;;;;;5079476;28;20123;-87
2021/09/27 07:34:43;;;;;;;31.63;17.20;;;19.20;90.30;;;;;;5085472;28;20032;-87
2021/09/27 07:37:08;;;;;;;16.98;8.43;;;19.30;90.30;;;;;;5085862;28;20047;-86
2021/09/27 07:39:34;;;;;;;30.98;17.20;;;19.30;89.60;;;;;;5086293;28;20028;-80
2021/09/27 07:42:00;;;;;;;28.23;17.70;;;19.30;89.90;;;;;;5092912;28;20107;-82
2021/09/27 07:44:26;;;;;;;26.02;16.17;;;19.30;90.00;;;;;;5083425;28;20028;-75
2021/09/27 07:46:51;;;;;;;21.00;13.05;;;19.40;90.10;;;;;;5084807;28;20031;-76
2021/09/27 07:49:17;;;;;;;22.63;12.85;;;19.30;89.80;;;;;;5078296;28;20104;-76
2021/09/27 07:51:43;;;;;;;24.20;13.82;;;19.40;90.00;;;;;;5082128;28;20016;-75
2021/09/27 07:54:09;;;;;;;25.58;14.43;;;19.40;90.00;;;;;;5089864;28;20383;-80
2021/09/27 07:56:35;;;;;;;22.23;12.20;;;19.40;89.80;;;;;;5084811;28;20054;-84
2021/09/27 07:59:01;;;;;;;12.85;7.10;;;19.40;89.70;;;;;;5085851;28;20028;-77
2021/09/27 08:01:27;;;;;;;20.77;11.15;;;19.50;88.70;;;;;;5093834;28;20069;-82
2021/09/27 08:03:53;;;;;;;23.20;12.18;;;19.40;89.20;;;;;;5076340;28;20035;-84
2021/09/27 08:06:19;;;;;;;27.05;11.35;;;19.40;89.60;;;;;;5092592;28;20020;-80
2021/09/27 08:08:44;;;;;;;23.70;12.52;;;19.40;89.30;;;;;;5097037;28;20102;-86
2021/09/27 08:11:10;;;;;;;18.92;10.93;;;19.40;89.60;;;;;;5087811;28;20032;-87
2021/09/27 08:13:36;;;;;;;14.77;7.30;;;19.30;89.80;;;;;;5082769;28;20111;-85
2021/09/27 08:16:03;;;;;;;20.50;12.00;;;19.30;89.50;;;;;;5097719;28;20447;-85
2021/09/27 08:18:28;;;;;;;20.30;11.77;;;19.40;90.10;;;;;;5079249;28;20056;-86
2021/09/27 08:20:57;;;;;;;21.70;10.20;;;19.40;90.00;;;;;;5078743;28;20036;-87
2021/09/27 08:23:24;;;;;;;19.85;10.65;;;19.40;90.00;;;;;;5079248;28;20047;-86
2021/09/27 08:25:52;;;;;;;24.15;13.63;;;19.40;90.00;;;;;;5078020;28;20024;-85
2021/09/27 08:28:20;;;;;;;21.23;13.63;;;19.40;90.20;;;;;;5077635;28;20033;-86
2021/09/27 08:30:55;;;;;;;26.63;13.75;;;19.40;90.20;;;;;;5085587;28;20547;-85
2021/09/27 08:33:22;;;;;;;24.08;11.85;;;19.40;90.30;;;;;;5079656;28;20483;-83
2021/09/27 08:35:50;;;;;;;27.75;15.35;;;19.50;90.20;;;;;;5081615;28;20421;-76
2021/09/27 08:38:17;;;;;;;24.30;10.23;;;19.50;90.10;;;;;;5087585;28;20047;-81
2021/09/27 08:40:52;;;;;;;13.10;7.32;;;19.50;89.90;;;;;;5091949;28;20506;-80
2021/09/27 08:43:20;;;;;;;25.42;14.85;;;19.50;89.60;;;;;;5078209;28;20035;-81
2021/09/27 08:45:47;;;;;;;24.88;14.02;;;19.50;90.10;;;;;;5077724;28;20403;-81
2021/09/27 08:48:28;;;;;;;25.77;15.15;;;19.60;90.10;;;;;;5092551;28;20038;-82
2021/09/27 08:50:54;;;;;;;22.35;14.02;;;19.60;90.30;;;;;;5078445;28;20123;-81
2021/09/27 08:53:23;;;;;;;22.73;12.07;;;19.60;90.30;;;;;;5088482;28;20103;-75
2021/09/27 08:55:50;;;;;;;29.40;15.23;;;19.60;90.20;;;;;;5077157;28;20410;-81
2021/09/27 08:58:44;;;;;;;31.92;15.35;;;19.70;90.30;;;;;;5074324;28;20027;-80
2021/09/27 09:01:21;;;;;;;26.17;15.10;;;19.70;90.40;;;;;;5081926;28;20032;-79
2021/09/27 09:04:04;;;;;;;24.42;12.20;;;19.80;90.50;;;;;;5075571;28;20036;-82
2021/09/27 09:06:39;;;;;;;;;;;19.80;90.20;;;;;;5077121;28;20427;-83
2021/09/27 09:09:17;;;;;;;21.38;10.77;;;19.80;89.70;;;;;;5084134;28;20010;-85
2021/09/27 09:12:06;;;;;;;22.35;12.20;;;19.90;89.80;;;;;;5074517;28;20039;-80
2021/09/27 09:14:45;;;;;;;25.67;12.88;;;19.90;89.70;;;;;;5074912;28;20028;-79
2021/09/27 09:17:21;;;;;;;21.13;12.10;;;19.90;89.80;;;;;;5075147;28;20036;-81
2021/09/27 09:19:47;;;;;;;19.85;10.02;;;19.90;90.00;;;;;;5074506;28;20029;-77
2021/09/27 09:22:35;;;;;;;12.55;7.53;;;19.90;89.40;;;;;;5087649;28;20111;-79
2021/09/27 09:25:07;;;;;;;12.25;7.25;;;19.90;89.40;;;;;;5083360;28;20035;-74
2021/09/27 09:27:33;;;;;;;23.15;13.55;;;19.90;89.60;;;;;;5080100;28;20039;-68
2021/09/27 09:29:59;;;;;;;23.35;11.68;;;19.90;90.10;;;;;;5090912;28;20020;-73
2021/09/27 09:32:28;;;;;;;21.92;11.85;;;19.90;90.20;;;;;;5088262;28;20039;-73
2021/09/27 09:35:22;;;;;;;20.00;11.82;;;20.00;90.30;;;;;;5079153;28;20063;-73
2021/09/27 09:37:52;;;;;;;21.70;13.13;;;20.00;90.20;;;;;;5085955;28;20052;-74
2021/09/27 09:40:21;;;;;;;23.73;12.93;;;20.00;90.30;;;;;;5086702;28;20547;-74
2021/09/27 09:43:13;;;;;;;20.98;11.32;;;20.10;90.30;;;;;;5084336;28;20028;-73
2021/09/27 09:45:46;;;;;;;14.52;8.68;;;20.10;90.20;;;;;;5074189;28;20090;-74
2021/09/27 09:48:11;;;;;;;14.93;8.32;;;20.20;90.10;;;;;;5088613;28;20028;-74
2021/09/27 09:50:37;;;;;;;18.45;10.55;;;20.30;89.90;;;;;;5085707;28;20047;-89
2021/09/27 09:53:21;;;;;;;14.85;8.93;;;20.30;90.10;;;;;;5077399;28;20094;-76
2021/09/27 09:55:57;;;;;;;18.20;8.82;;;20.40;89.90;;;;;;5086132;28;20032;-76
2021/09/27 09:58:42;;;;;;;27.67;8.93;;;20.40;90.00;;;;;;5075212;28;20484;-76
2021/09/27 10:01:22;;;;;;;17.05;9.48;;;20.40;89.80;;;;;;5081162;28;20402;-76
2021/09/27 10:04:07;;;;;;;20.30;11.00;;;20.50;90.00;;;;;;5089017;28;20028;-76
2021/09/27 10:06:36;;;;;;;24.83;12.30;;;20.50;90.10;;;;;;5084547;28;20039;-76
2021/09/27 10:09:05;;;;;;;23.77;10.98;;;20.60;90.30;;;;;;5090659;28;20537;-76
2021/09/27 10:11:40;;;;;;;19.02;11.10;;;20.60;90.30;;;;;;5087777;28;20042;-76
2021/09/27 10:14:31;;;;;;;18.23;10.50;;;20.70;90.30;;;;;;5088129;28;20028;-77
2021/09/27 10:17:26;;;;;;;22.05;10.13;;;20.70;90.10;;;;;;5072270;28;20033;-78
2021/09/27 10:20:09;;;;;;;21.48;11.30;;;20.80;90.00;;;;;;5085603;28;20033;-78
2021/09/27 10:22:39;;;;;;;20.35;11.13;;;20.80;90.10;;;;;;5089718;28;20035;-77
2021/09/27 10:25:42;;;;;;;19.00;9.50;;;20.80;90.00;;;;;;5090786;28;20036;-77
2021/09/27 10:28:12;;;;;;;14.03;9.43;;;20.90;90.10;;;;;;5092259;28;20023;-78
2021/09/27 10:30:56;;;;;;;16.63;9.57;;;20.90;90.00;;;;;;5072809;28;20037;-77
2021/09/27 10:33:32;;;;;;;17.02;9.60;;;21.00;90.10;;;;;;5076462;28;20032;-78
2021/09/27 10:36:07;;;;;;;14.30;8.85;;;21.00;89.90;;;;;;5076532;28;20072;-90
2021/09/27 10:38:42;;;;;;;13.32;8.20;;;21.10;89.40;;;;;;5074736;28;20491;-89
2021/09/27 10:41:12;;;;;;;13.57;7.68;;;21.10;89.30;;;;;;5085147;28;20028;-91
2021/09/27 10:43:38;;;;;;;3.17;2.17;;;21.10;89.30;;;;;;5087167;28;20032;-87
2021/09/27 10:46:05;;;;;;;6.13;4.13;;;21.10;88.90;;;;;;5091691;28;20371;-84
2021/09/27 10:48:31;;;;;;;7.90;4.97;;;21.10;89.30;;;;;;5077728;28;20074;-85
2021/09/27 10:51:10;;;;;;;6.45;4.18;;;21.10;89.80;;;;;;5082033;28;20028;-86
2021/09/27 10:53:52;;;;;;;12.57;6.55;;;21.10;90.00;;;;;;5082438;28;20060;-77
2021/09/27 10:56:38;;;;;;;8.90;5.15;;;21.10;90.20;;;;;;5081585;28;20549;-77
2021/09/27 10:59:15;;;;;;;5.68;2.58;;;21.10;90.20;;;;;;5081302;28;20369;-77
2021/09/27 11:01:50;;;;;;;19.45;9.88;;;21.10;90.40;;;;;;5073771;28;20028;-77
2021/09/27 11:04:23;;;;;;;6.10;3.65;;;21.10;90.50;;;;;;5071935;28;20395;-77
2021/09/27 11:06:52;;;;;;;10.23;5.70;;;21.10;90.30;;;;;;5076162;28;20450;-87
2021/09/27 11:09:36;;;;;;;5.10;2.53;;;21.20;90.30;;;;;;5086880;28;20035;-77
2021/09/27 11:12:16;;;;;;;14.57;8.88;;;21.20;90.20;;;;;;5080047;28;20107;-77
2021/09/27 11:14:48;;;;;;;13.27;8.25;;;21.30;90.40;;;;;;5085339;28;20376;-77
2021/09/27 11:17:29;;;;;;;12.98;6.80;;;21.30;90.40;;;;;;5078940;28;20036;-77
2021/09/27 11:20:29;;;;;;;10.57;4.93;;;21.40;90.40;;;;;;5080254;28;20024;-77
2021/09/27 11:22:55;;;;;;;17.60;8.73;;;21.40;90.30;;;;;;5089103;28;20036;-94
2021/09/27 11:25:20;;;;;;;11.10;5.68;;;21.40;90.30;;;;;;5077385;28;20082;-77
2021/09/27 11:28:03;;;;;;;11.05;5.78;;;21.50;90.20;;;;;;5076960;28;20043;-77
2021/09/27 11:30:37;;;;;;;10.95;6.72;;;21.60;90.20;;;;;;5079843;28;20028;-77
2021/09/27 11:33:05;;;;;;;11.55;7.78;;;21.60;90.10;;;;;;5077843;28;20082;-77
2021/09/27 11:35:39;;;;;;;11.13;6.15;;;21.60;90.00;;;;;;5081080;28;20530;-77
2021/09/27 11:38:29;;;;;;;11.00;7.20;;;21.70;90.10;;;;;;5075893;28;20121;-77
2021/09/27 11:41:16;;;;;;;8.25;4.47;;;21.80;90.10;;;;;;5077861;28;20123;-77
2021/09/27 11:44:12;;;;;;;15.15;8.27;;;21.80;90.10;;;;;;5069272;28;20035;-77
2021/09/27 11:46:41;;;;;;;20.65;7.03;;;21.80;90.20;;;;;;5075852;28;20029;-83
2021/09/27 11:49:29;;;;;;;11.23;7.70;;;21.90;90.30;;;;;;5076789;28;20031;-80
2021/09/27 11:52:01;;;;;;;11.10;6.82;;;21.90;90.00;;;;;;5077369;28;20100;-77
2021/09/27 11:54:58;;;;;;;14.63;4.82;;;22.00;89.80;;;;;;5077099;28;20074;-78
2021/09/27 11:57:48;;;;;;;12.32;7.07;;;22.10;89.70;;;;;;5074942;28;20119;-77
2021/09/27 12:00:24;;;;;;;13.20;7.13;;;22.10;89.40;;;;;;5076454;28;20055;-77
2021/09/27 12:03:24;;;;;;;14.50;6.50;;;22.10;89.40;;;;;;5074598;28;20032;-77
2021/09/27 12:06:01;;;;;;;13.45;6.38;;;22.20;89.20;;;;;;5077694;28;20028;-78
2021/09/27 12:08:43;;;;;;;9.73;5.45;;;22.20;89.40;;;;;;5079433;28;20031;-78
2021/09/27 12:11:13;;;;;;;6.55;3.70;;;22.30;89.60;;;;;;5075733;28;20029;-78
2021/09/27 12:13:44;;;;;;;10.20;6.43;;;22.30;89.70;;;;;;5079086;28;20012;-77
2021/09/27 12:16:29;;;;;;;12.25;6.95;;;22.30;89.60;;;;;;5075589;28;20042;-79
2021/09/27 12:18:59;;;;;;;10.50;6.03;;;22.40;89.30;;;;;;5076179;28;20020;-78
2021/09/27 12:21:38;;;;;;;11.20;5.90;;;22.40;89.20;;;;;;5080533;28;20034;-80
2021/09/27 12:24:12;;;;;;;9.68;5.55;;;22.50;89.30;;;;;;5077122;28;20032;-79
2021/09/27 12:26:51;;;;;;;9.88;6.20;;;22.50;89.30;;;;;;5076579;28;20036;-79
2021/09/27 12:29:25;;;;;;;10.82;5.43;;;22.50;88.90;;;;;;5077055;28;20032;-77
2021/09/27 12:32:07;;;;;;;10.77;5.32;;;22.60;89.00;;;;;;5080480;28;20094;-77
2021/09/27 12:34:43;;;;;;;11.00;5.78;;;22.60;88.90;;;;;;5075398;28;20037;-79
2021/09/27 12:37:11;;;;;;;10.75;5.28;;;22.60;88.90;;;;;;5077302;28;20476;-77
2021/09/27 12:39:37;;;;;;;9.90;5.47;;;22.60;88.70;;;;;;5080420;28;20031;-77
2021/09/27 12:42:08;;;;;;;10.82;5.53;;;22.70;88.70;;;;;;5074895;28;20028;-78
2021/09/27 12:44:36;;;;;;;11.38;4.78;;;22.70;88.70;;;;;;5078477;28;20048;-78
2021/09/27 12:47:06;;;;;;;11.85;5.55;;;22.70;89.10;;;;;;5078571;28;20035;-78
2021/09/27 12:49:36;;;;;;;8.43;5.55;;;22.70;89.00;;;;;;5075259;28;20033;-79
2021/09/27 12:52:05;;;;;;;12.82;6.22;;;22.70;88.80;;;;;;5079997;28;20562;-77
2021/09/27 12:54:36;;;;;;;13.60;6.47;;;22.70;88.70;;;;;;5077281;28;20028;-79
2021/09/27 12:57:19;;;;;;;10.85;5.25;;;22.80;88.60;;;;;;5073902;28;20055;-78
2021/09/27 12:59:45;;;;;;;9.48;6.30;;;22.80;88.80;;;;;;5082951;28;20379;-81
2021/09/27 13:02:13;;;;;;;10.50;4.28;;;22.90;88.80;;;;;;5077701;28;20035;-79
2021/09/27 13:04:50;;;;;;;7.57;4.03;;;22.90;88.90;;;;;;5075067;28;20199;-81
2021/09/27 13:07:17;;;;;;;11.23;5.13;;;22.90;89.00;;;;;;5078111;28;20025;-79
2021/09/27 13:10:13;;;;;;;15.40;4.88;;;22.90;88.60;;;;;;5077870;28;20094;-79
2021/09/27 13:12:40;;;;;;;5.32;3.50;;;22.90;88.70;;;;;;5076421;28;20093;-78
2021/09/27 13:15:06;;;;;;;7.20;3.67;;;22.90;88.70;;;;;;5080396;28;20118;-78
2021/09/27 13:17:33;;;;;;;6.18;3.40;;;22.90;88.70;;;;;;5076683;28;20107;-79
2021/09/27 13:20:20;;;;;;;3.97;1.83;;;22.90;88.60;;;;;;5074924;28;20471;-80